createdAt,value
2023-03-11T00:01:40.465Z,97110.50
2023-03-11T00:04:44.160Z,97104.06
2023-03-11T00:07:46.374Z,97105.97
2023-03-11T00:10:52.874Z,97097.44
2023-03-11T00:13:55.045Z,97086.59
2023-03-11T00:16:57.245Z,97080.88
2023-03-11T00:19:59.406Z,97077.22
2023-03-11T00:23:02.850Z,97084.06
2023-03-11T00:26:04.946Z,97071.81
2023-03-11T00:29:07.242Z,97071.97
2023-03-11T00:32:09.288Z,97073.75
2023-03-11T00:35:14.362Z,97066.03
2023-03-11T00:38:17.375Z,97068.75
2023-03-11T00:41:19.850Z,97070.38
2023-03-11T00:44:22.707Z,97058.94
2023-03-11T00:47:25.928Z,97061.72
2023-03-11T00:50:30.949Z,97057.84
2023-03-11T00:53:33.092Z,97062.16
2023-03-11T00:56:35.159Z,97053.78
2023-03-11T00:59:37.436Z,97059.44
2023-03-11T01:02:40.479Z,97057.22
2023-03-11T01:05:42.809Z,97042.19
2023-03-11T01:08:44.895Z,97038.06
2023-03-11T01:11:47.072Z,97046.19
2023-03-11T01:14:49.106Z,97044.09
2023-03-11T01:17:51.428Z,97044.75
2023-03-11T01:20:54.172Z,97037.84
2023-03-11T01:23:56.807Z,97018.94
2023-03-11T01:26:58.897Z,97039.31
2023-03-11T01:30:01.120Z,97031.66
2023-03-11T01:33:04.860Z,97028.34
2023-03-11T01:36:07.507Z,97029.00
2023-03-11T01:39:09.807Z,97034.31
2023-03-11T01:42:11.979Z,97025.03
2023-03-11T01:45:42.527Z,97026.19
2023-03-11T01:48:52.418Z,97019.72
2023-03-11T01:51:58.017Z,97017.13
2023-03-11T01:55:00.203Z,97018.28
2023-03-11T01:58:07.627Z,97028.84
2023-03-11T02:01:10.024Z,97028.56
2023-03-11T02:04:13.234Z,97032.38
2023-03-11T02:07:15.415Z,97032.84
2023-03-11T02:10:18.647Z,97027.16
2023-03-11T02:13:21.139Z,97016.09
2023-03-11T02:16:23.301Z,97021.22
2023-03-11T02:19:58.289Z,97015.56
2023-03-11T02:23:02.431Z,97016.81
2023-03-11T02:26:17.088Z,97003.25
2023-03-11T02:29:21.997Z,97002.47
2023-03-11T02:32:25.408Z,96998.94
2023-03-11T02:35:28.142Z,96999.13
2023-03-11T02:38:31.258Z,96996.50
2023-03-11T02:41:37.126Z,97005.13
2023-03-11T02:44:44.230Z,97002.06
2023-03-11T02:47:46.763Z,97003.78
2023-03-11T02:50:49.133Z,97001.50
2023-03-11T02:53:57.843Z,97001.88
2023-03-11T02:57:00.135Z,97004.34
2023-03-11T03:00:13.383Z,96996.19
2023-03-11T03:03:17.501Z,96989.53
2023-03-11T03:06:20.237Z,96997.72
2023-03-11T03:09:24.591Z,97000.19
2023-03-11T03:12:26.624Z,97002.22
2023-03-11T03:15:28.916Z,97003.41
2023-03-11T03:18:31.535Z,96990.19
2023-03-11T03:21:33.684Z,96976.66
2023-03-11T03:24:36.527Z,96958.72
2023-03-11T03:27:39.203Z,96962.25
2023-03-11T03:30:42.849Z,96961.44
2023-03-11T03:33:46.136Z,96980.53
2023-03-11T03:36:48.696Z,96958.44
2023-03-11T03:39:53.633Z,96966.53
2023-03-11T03:42:55.839Z,96973.38
2023-03-11T03:46:00.535Z,96970.19
2023-03-11T03:49:06.783Z,96965.22
2023-03-11T03:52:10.509Z,96968.38
2023-03-11T03:55:14.206Z,96967.91
2023-03-11T03:58:16.791Z,96974.91
2023-03-11T04:01:20.288Z,96981.16
2023-03-11T04:04:22.901Z,96983.19
2023-03-11T04:07:24.949Z,96993.69
2023-03-11T04:10:27.101Z,96979.78
2023-03-11T04:13:29.629Z,96976.31
2023-03-11T04:16:32.070Z,96965.97
2023-03-11T04:19:39.784Z,96949.47
2023-03-11T04:22:42.631Z,96958.94
2023-03-11T04:25:45.039Z,96951.88
2023-03-11T04:28:47.214Z,96954.59
2023-03-11T04:31:50.167Z,96950.88
2023-03-11T04:34:52.431Z,96954.75
2023-03-11T04:37:54.583Z,96969.09
2023-03-11T04:41:04.926Z,96976.91
2023-03-11T04:44:07.841Z,96974.75
2023-03-11T04:47:10.168Z,96980.13
2023-03-11T04:50:12.460Z,96990.16
2023-03-11T04:53:17.135Z,97000.16
2023-03-11T04:56:19.349Z,97006.03
2023-03-11T04:59:21.389Z,97015.25
2023-03-11T05:02:25.756Z,97018.47
2023-03-11T05:05:32.940Z,97024.72
2023-03-11T05:08:35.434Z,97014.56
2023-03-11T05:11:37.854Z,97022.03
2023-03-11T05:14:40.915Z,97019.34
2023-03-11T05:17:43.963Z,97024.81
2023-03-11T05:20:46.114Z,97024.53
2023-03-11T05:23:49.796Z,97016.66
2023-03-11T05:26:52.880Z,97014.78
2023-03-11T05:29:55.306Z,97021.72
2023-03-11T05:32:59.283Z,97012.94
2023-03-11T05:36:07.211Z,97016.28
2023-03-11T05:39:10.443Z,97015.09
2023-03-11T05:42:12.983Z,97013.34
2023-03-11T05:45:15.848Z,97014.94
2023-03-11T05:48:20.799Z,97011.44
2023-03-11T05:51:23.460Z,96994.38
2023-03-11T05:54:25.730Z,96992.13
2023-03-11T05:57:28.538Z,96993.59
2023-03-11T06:00:31.945Z,96997.63
2023-03-11T06:03:37.774Z,97001.75
2023-03-11T06:06:43.806Z,97007.13
2023-03-11T06:09:46.651Z,97006.97
2023-03-11T06:12:52.711Z,97013.50
2023-03-11T06:15:59.503Z,97014.94
2023-03-11T06:19:02.203Z,97012.03
2023-03-11T06:22:08.006Z,97013.00
2023-03-11T06:25:10.816Z,97018.41
2023-03-11T06:28:15.207Z,97025.59
2023-03-11T06:31:27.700Z,97021.38
2023-03-11T06:34:34.503Z,97016.38
2023-03-11T06:37:37.671Z,97029.09
2023-03-11T06:40:39.831Z,97033.72
2023-03-11T06:43:42.759Z,97043.09
2023-03-11T06:46:45.164Z,97054.88
2023-03-11T06:49:48.217Z,97061.66
2023-03-11T06:52:51.953Z,97055.44
2023-03-11T06:56:23.801Z,97056.16
2023-03-11T06:59:31.379Z,97058.31
2023-03-11T07:02:34.420Z,97063.59
2023-03-11T07:05:36.713Z,97056.19
2023-03-11T07:08:43.219Z,97055.66
2023-03-11T07:11:45.527Z,97052.72
2023-03-11T07:14:56.775Z,97050.72
2023-03-11T07:17:59.182Z,97053.16
2023-03-11T07:21:05.819Z,97063.31
2023-03-11T07:24:08.032Z,97060.63
2023-03-11T07:27:10.107Z,97064.00
2023-03-11T07:30:12.612Z,97084.13
2023-03-11T07:33:15.384Z,97077.78
2023-03-11T07:36:20.177Z,97083.59
2023-03-11T07:39:22.665Z,97076.16
2023-03-11T07:42:24.885Z,97077.09
2023-03-11T07:45:29.105Z,97070.75
2023-03-11T07:48:31.408Z,97080.75
2023-03-11T07:52:05.982Z,97105.44
2023-03-11T07:55:08.573Z,97097.72
2023-03-11T07:58:10.687Z,97097.03
2023-03-11T08:01:18.460Z,97087.03
2023-03-11T08:04:20.614Z,97071.16
2023-03-11T08:07:22.845Z,97081.16
2023-03-11T08:10:24.938Z,97081.78
2023-03-11T08:13:27.059Z,97078.50
2023-03-11T08:16:29.640Z,97095.91
2023-03-11T08:19:31.980Z,97090.28
2023-03-11T08:22:34.084Z,97097.28
2023-03-11T08:25:39.322Z,97093.69
2023-03-11T08:28:41.763Z,97100.69
2023-03-11T08:31:43.924Z,97099.06
2023-03-11T08:34:46.007Z,97103.38
2023-03-11T08:37:48.254Z,97096.25
2023-03-11T08:40:50.511Z,97110.09
2023-03-11T08:43:52.949Z,97112.88
2023-03-11T08:46:55.316Z,97121.22
2023-03-11T08:49:57.489Z,97115.91
2023-03-11T08:53:03.163Z,97101.38
2023-03-11T08:56:05.960Z,97109.72
2023-03-11T08:59:08.671Z,97116.69
2023-03-11T09:02:11.739Z,97110.19
2023-03-11T09:05:14.580Z,97120.88
2023-03-11T09:08:16.723Z,97116.44
2023-03-11T09:11:19.280Z,97132.13
2023-03-11T09:14:21.480Z,97136.88
2023-03-11T09:17:23.763Z,97139.00
2023-03-11T09:20:26.801Z,97136.78
2023-03-11T09:23:30.260Z,97147.09
2023-03-11T09:26:32.753Z,97150.25
2023-03-11T09:29:34.840Z,97143.63
2023-03-11T09:32:37.169Z,97155.09
2023-03-11T09:35:40.014Z,97148.13
2023-03-11T09:38:42.858Z,97140.91
2023-03-11T09:41:57.555Z,97113.56
2023-03-11T09:45:13.348Z,97125.84
2023-03-11T09:48:57.680Z,97134.06
2023-03-11T09:52:05.849Z,97143.00
2023-03-11T09:55:37.887Z,97134.81
2023-03-11T09:58:44.652Z,97143.91
2023-03-11T10:01:50.559Z,97145.25
2023-03-11T10:05:28.936Z,97140.63
2023-03-11T10:08:49.171Z,97144.94
2023-03-11T10:12:03.237Z,97150.28
2023-03-11T10:15:09.487Z,97147.28
2023-03-11T10:18:47.884Z,97151.31
2023-03-11T10:22:13.914Z,97150.09
2023-03-11T10:25:44.812Z,97151.78
2023-03-11T10:28:54.463Z,97140.38
2023-03-11T10:32:23.630Z,97139.88
2023-03-11T10:35:39.651Z,97145.94
2023-03-11T10:38:48.482Z,97135.94
2023-03-11T10:42:05.506Z,97134.72
2023-03-11T10:45:14.567Z,97139.47
2023-03-11T10:48:19.252Z,97150.16
2023-03-11T10:51:23.810Z,97159.19
2023-03-11T10:54:37.755Z,97138.66
2023-03-11T10:57:40.253Z,97163.75
2023-03-11T11:00:42.808Z,97146.38
2023-03-11T11:03:55.514Z,97144.59
2023-03-11T11:06:59.492Z,97156.63
2023-03-11T11:10:22.251Z,97155.94
2023-03-11T11:13:26.619Z,97169.19
2023-03-11T11:16:29.613Z,97170.50
2023-03-11T11:19:31.969Z,97167.03
2023-03-11T11:22:34.180Z,97174.19
2023-03-11T11:25:40.852Z,97190.66
2023-03-11T11:28:43.236Z,97190.25
2023-03-11T11:31:47.295Z,97189.03
2023-03-11T11:35:05.301Z,97169.44
2023-03-11T11:38:10.904Z,97195.31
2023-03-11T11:41:17.217Z,97195.03
2023-03-11T11:44:22.588Z,97202.59
2023-03-11T11:47:33.168Z,97206.50
2023-03-11T11:50:42.159Z,97212.56
2023-03-11T11:53:47.570Z,97212.31
2023-03-11T11:56:49.823Z,97221.19
2023-03-11T11:59:52.023Z,97217.16
2023-03-11T12:03:21.894Z,97218.59
2023-03-11T12:07:04.301Z,97232.00
2023-03-11T12:10:27.069Z,97228.34
2023-03-11T12:13:50.886Z,97233.91
2023-03-11T12:16:58.903Z,97244.28
2023-03-11T12:20:12.063Z,97244.97
2023-03-11T12:23:35.879Z,97250.50
2023-03-11T12:26:42.498Z,97253.22
2023-03-11T12:29:49.638Z,97253.50
2023-03-11T12:32:59.543Z,97264.97
2023-03-11T12:36:02.754Z,97256.16
2023-03-11T12:39:07.777Z,97264.69
2023-03-11T12:42:11.140Z,97274.41
2023-03-11T12:45:51.237Z,97270.59
2023-03-11T12:49:12.594Z,97287.16
2023-03-11T12:52:14.602Z,97286.88
2023-03-11T12:55:16.616Z,97297.16
2023-03-11T12:58:35.889Z,97304.88
2023-03-11T13:01:42.530Z,97296.88
2023-03-11T13:05:14.846Z,97303.50
2023-03-11T13:08:21.523Z,97308.78
2023-03-11T13:11:28.808Z,97317.69
2023-03-11T13:14:32.922Z,97321.91
2023-03-11T13:17:34.994Z,97330.56
2023-03-11T13:20:43.644Z,97328.00
2023-03-11T13:23:45.783Z,97328.28
2023-03-11T13:26:57.005Z,97335.28
2023-03-11T13:30:11.660Z,97351.09
2023-03-11T13:33:36.809Z,97351.25
2023-03-11T13:37:13.777Z,97351.53
2023-03-11T13:40:29.556Z,97361.66
2023-03-11T13:43:32.277Z,97357.22
2023-03-11T13:46:40.359Z,97358.50
2023-03-11T13:50:00.579Z,97377.00
2023-03-11T13:53:09.395Z,97380.25
2023-03-11T13:56:24.228Z,97387.94
2023-03-11T13:59:27.790Z,97389.16
2023-03-11T14:02:30.372Z,97390.09
2023-03-11T14:05:35.434Z,97402.78
2023-03-11T14:08:38.661Z,97403.69
2023-03-11T14:11:43.673Z,97407.63
2023-03-11T14:15:11.752Z,97420.63
2023-03-11T14:18:27.083Z,97420.63
2023-03-11T14:21:31.775Z,97430.63
2023-03-11T14:24:33.880Z,97417.13
2023-03-11T14:27:39.186Z,97422.66
2023-03-11T14:30:56.026Z,97429.13
2023-03-11T14:34:07.720Z,97449.19
2023-03-11T14:37:24.282Z,97454.03
2023-03-11T14:40:32.445Z,97460.00
2023-03-11T14:43:41.507Z,97479.19
2023-03-11T14:46:45.349Z,97481.75
2023-03-11T14:49:49.936Z,97486.38
2023-03-11T14:52:55.606Z,97501.94
2023-03-11T14:56:01.245Z,97510.56
2023-03-11T14:59:12.614Z,97514.19
2023-03-11T15:02:38.194Z,97522.78
2023-03-11T15:05:55.731Z,97525.47
2023-03-11T15:09:17.672Z,97535.94
2023-03-11T15:12:35.035Z,97558.56
2023-03-11T15:15:37.298Z,97558.00
2023-03-11T15:18:39.730Z,97562.81
2023-03-11T15:21:47.393Z,97571.72
2023-03-11T15:24:52.179Z,97577.25
2023-03-11T15:27:54.807Z,97586.16
2023-03-11T15:31:22.169Z,97590.59
2023-03-11T15:34:32.259Z,97609.38
2023-03-11T15:37:35.098Z,97612.31
2023-03-11T15:40:45.300Z,97611.06
2023-03-11T15:43:49.352Z,97613.78
2023-03-11T15:46:52.057Z,97623.94
2023-03-11T15:49:54.266Z,97640.16
2023-03-11T15:52:57.671Z,97650.03
2023-03-11T15:56:10.988Z,97659.84
2023-03-11T15:59:16.596Z,97664.16
2023-03-11T16:02:27.626Z,97693.44
2023-03-11T16:05:29.805Z,97701.72
2023-03-11T16:08:32.240Z,97735.97
2023-03-11T16:11:45.629Z,97763.91
2023-03-11T16:14:49.023Z,97783.81
2023-03-11T16:18:02.349Z,97776.97
2023-03-11T16:21:15.766Z,97786.66
2023-03-11T16:24:23.582Z,97799.69
2023-03-11T16:27:26.045Z,97810.13
2023-03-11T16:30:30.774Z,97824.56
2023-03-11T16:33:33.898Z,97837.03
2023-03-11T16:36:36.146Z,97844.69
2023-03-11T16:39:38.813Z,97845.69
2023-03-11T16:42:41.546Z,97856.09
2023-03-11T16:45:44.003Z,97856.41
2023-03-11T16:48:48.236Z,97867.41
2023-03-11T16:51:50.548Z,97880.59
2023-03-11T16:54:52.708Z,97884.75
2023-03-11T16:57:57.439Z,97888.28
2023-03-11T17:00:59.843Z,97887.69
2023-03-11T17:04:02.123Z,97903.34
2023-03-11T17:07:05.768Z,97913.44
2023-03-11T17:10:09.434Z,97922.47
2023-03-11T17:13:13.810Z,97932.53
2023-03-11T17:16:16.352Z,97932.72
2023-03-11T17:19:18.908Z,97935.16
2023-03-11T17:22:21.325Z,97941.00
2023-03-11T17:25:23.683Z,97966.66
2023-03-11T17:28:25.926Z,97965.63
2023-03-11T17:31:28.104Z,97973.72
2023-03-11T17:34:30.510Z,97977.16
2023-03-11T17:37:32.945Z,97987.41
2023-03-11T17:40:35.476Z,97987.44
2023-03-11T17:43:38.852Z,97980.16
2023-03-11T17:46:41.398Z,97992.03
2023-03-11T17:49:43.754Z,98005.63
2023-03-11T17:52:47.141Z,98011.16
2023-03-11T17:55:49.694Z,98018.22
2023-03-11T17:58:52.164Z,98036.44
2023-03-11T18:01:55.896Z,98038.50
2023-03-11T18:04:58.269Z,98044.59
2023-03-11T18:08:00.687Z,98048.13
2023-03-11T18:11:09.000Z,98050.47
2023-03-11T18:14:12.723Z,98056.81
2023-03-11T18:17:16.231Z,98054.84
2023-03-11T18:20:21.631Z,98071.50
2023-03-11T18:23:24.116Z,98076.19
2023-03-11T18:26:28.698Z,98078.47
2023-03-11T18:29:31.188Z,98087.06
2023-03-11T18:32:35.615Z,98087.69
2023-03-11T18:35:38.105Z,98093.84
2023-03-11T18:38:40.570Z,98100.19
2023-03-11T18:41:43.719Z,98105.44
2023-03-11T18:44:45.935Z,98107.66
2023-03-11T18:47:48.301Z,98119.53
2023-03-11T18:50:52.779Z,98124.41
2023-03-11T18:53:55.017Z,98122.78
2023-03-11T18:56:57.267Z,98131.16
2023-03-11T18:59:59.750Z,98131.72
2023-03-11T19:03:01.928Z,98135.44
2023-03-11T19:06:04.800Z,98138.84
2023-03-11T19:09:07.274Z,98144.41
2023-03-11T19:12:09.752Z,98149.50
2023-03-11T19:15:13.071Z,98157.06
2023-03-11T19:18:15.930Z,98157.47
2023-03-11T19:21:18.661Z,98155.72
2023-03-11T19:24:20.921Z,98169.59
2023-03-11T19:27:23.261Z,98180.53
2023-03-11T19:30:26.352Z,98177.41
2023-03-11T19:33:29.400Z,98173.22
2023-03-11T19:36:32.015Z,98185.81
2023-03-11T19:39:34.407Z,98193.78
2023-03-11T19:42:37.014Z,98198.06
2023-03-11T19:45:40.176Z,98201.97
2023-03-11T19:48:42.545Z,98205.28
2023-03-11T19:51:50.151Z,98211.78
2023-03-11T19:54:53.174Z,98214.66
2023-03-11T19:57:55.458Z,98227.50
2023-03-11T20:00:59.416Z,98229.31
2023-03-11T20:04:02.246Z,98229.31
2023-03-11T20:07:05.239Z,98236.25
2023-03-11T20:10:08.042Z,98231.41
2023-03-11T20:13:11.771Z,98241.06
2023-03-11T20:16:18.886Z,98251.66
2023-03-11T20:19:21.458Z,98257.78
2023-03-11T20:22:23.871Z,98265.84
2023-03-11T20:25:26.850Z,98262.69
2023-03-11T20:28:29.209Z,98277.75
2023-03-11T20:31:31.861Z,98274.56
2023-03-11T20:34:34.320Z,98293.09
2023-03-11T20:37:36.655Z,98292.47
2023-03-11T20:40:39.388Z,98298.91
2023-03-11T20:43:41.716Z,98292.97
2023-03-11T20:46:44.416Z,98310.06
2023-03-11T20:49:46.956Z,98314.56
2023-03-11T20:52:49.855Z,98315.47
2023-03-11T20:55:52.272Z,98324.53
2023-03-11T20:58:56.573Z,98325.25
2023-03-11T21:01:58.995Z,98335.41
2023-03-11T21:05:01.390Z,98340.94
2023-03-11T21:08:04.832Z,98348.25
2023-03-11T21:11:07.566Z,98348.31
2023-03-11T21:14:10.750Z,98340.00
2023-03-11T21:17:12.946Z,98357.72
2023-03-11T21:20:16.783Z,98350.69
2023-03-11T21:23:19.623Z,98362.53
2023-03-11T21:26:21.751Z,98360.03
2023-03-11T21:29:23.916Z,98372.50
2023-03-11T21:32:27.992Z,98375.31
2023-03-11T21:35:30.765Z,98380.06
2023-03-11T21:38:33.693Z,98383.38
2023-03-11T21:41:36.165Z,98387.75
2023-03-11T21:44:38.355Z,98388.31
2023-03-11T21:47:40.533Z,98395.72
2023-03-11T21:50:42.888Z,98397.03
2023-03-11T21:53:45.469Z,98402.78
2023-03-11T21:56:47.799Z,98407.13
2023-03-11T21:59:50.156Z,98405.13
2023-03-11T22:02:52.380Z,98413.94
2023-03-11T22:05:59.184Z,98422.13
2023-03-11T22:09:02.405Z,98431.34
2023-03-11T22:12:05.109Z,98436.34
2023-03-11T22:15:07.981Z,98428.31
2023-03-11T22:18:10.909Z,98445.31
2023-03-11T22:21:16.836Z,98445.31
2023-03-11T22:24:18.949Z,98445.50
2023-03-11T22:27:27.817Z,98447.66
2023-03-11T22:30:30.441Z,98460.63
2023-03-11T22:33:32.515Z,98477.34
2023-03-11T22:36:34.611Z,98478.09
2023-03-11T22:39:36.980Z,98471.41
2023-03-11T22:42:39.347Z,98476.38
2023-03-11T22:45:41.511Z,98492.31
2023-03-11T22:48:43.649Z,98490.22
2023-03-11T22:51:46.663Z,98500.06
2023-03-11T22:54:48.824Z,98506.47
2023-03-11T22:57:51.299Z,98506.03
2023-03-11T23:00:53.670Z,98509.25
2023-03-11T23:03:56.127Z,98512.94
2023-03-11T23:06:58.351Z,98523.34
2023-03-11T23:10:00.498Z,98526.78
2023-03-11T23:13:02.630Z,98532.78
2023-03-11T23:16:08.099Z,98528.38
2023-03-11T23:19:10.268Z,98525.56
2023-03-11T23:22:12.378Z,98533.97
2023-03-11T23:25:16.472Z,98534.50
2023-03-11T23:28:19.278Z,98542.28
2023-03-11T23:31:23.483Z,98559.03
2023-03-11T23:34:25.910Z,98573.28
2023-03-11T23:37:27.957Z,98570.16
2023-03-11T23:40:30.062Z,98579.38
2023-03-11T23:43:32.123Z,98574.22
2023-03-11T23:46:34.439Z,98587.75
2023-03-11T23:49:36.613Z,98596.59
2023-03-11T23:52:38.806Z,98590.94
2023-03-11T23:55:41.203Z,98599.41
2023-03-11T23:58:43.576Z,98602.63
